createdAt,value
2018-05-31T00:00:41.652Z,99.99
2018-05-31T00:01:41.644Z,99.99
2018-05-31T00:02:41.635Z,99.99
2018-05-31T00:03:41.635Z,99.99
2018-05-31T00:04:41.622Z,99.99
2018-05-31T00:05:41.617Z,99.99
2018-05-31T00:06:41.617Z,99.99
2018-05-31T00:07:41.614Z,99.99
2018-05-31T00:08:41.600Z,99.99
2018-05-31T00:09:41.596Z,99.99
2018-05-31T00:10:41.597Z,99.99
2018-05-31T00:11:41.583Z,99.99
2018-05-31T00:12:41.579Z,99.99
2018-05-31T00:13:41.585Z,99.99
2018-05-31T00:14:41.565Z,99.99
2018-05-31T00:15:41.560Z,99.99
2018-05-31T00:16:41.554Z,99.99
2018-05-31T00:17:41.553Z,99.99
2018-05-31T00:18:41.551Z,99.99
2018-05-31T00:19:41.537Z,99.99
2018-05-31T00:20:41.531Z,99.99
2018-05-31T00:21:41.535Z,99.99
2018-05-31T00:22:41.530Z,99.99
2018-05-31T00:23:41.523Z,99.99
2018-05-31T00:24:41.508Z,99.99
2018-05-31T00:25:41.511Z,99.99
2018-05-31T00:26:41.511Z,99.99
2018-05-31T00:27:41.493Z,99.99
2018-05-31T00:28:41.489Z,99.99
2018-05-31T00:29:41.482Z,99.99
2018-05-31T00:30:41.480Z,99.99
2018-05-31T00:31:41.474Z,99.99
2018-05-31T00:32:41.473Z,99.99
2018-05-31T00:33:41.468Z,99.99
2018-05-31T00:34:41.459Z,99.99
2018-05-31T00:35:41.448Z,99.99
2018-05-31T00:36:41.455Z,99.99
2018-05-31T00:37:41.444Z,99.99
2018-05-31T00:38:41.432Z,99.99
2018-05-31T00:39:41.428Z,99.99
2018-05-31T00:40:41.423Z,99.99
2018-05-31T00:41:41.424Z,99.99
2018-05-31T00:42:41.425Z,99.99
2018-05-31T00:43:41.404Z,99.99
2018-05-31T00:44:41.402Z,99.99
2018-05-31T00:45:41.397Z,99.99
2018-05-31T00:46:41.392Z,99.99
2018-05-31T00:47:41.384Z,99.99
2018-05-31T00:48:41.377Z,99.99
2018-05-31T00:49:41.379Z,99.99
2018-05-31T00:50:41.367Z,99.99
2018-05-31T00:51:41.359Z,99.99
2018-05-31T00:52:41.353Z,99.99
2018-05-31T00:53:41.361Z,99.99
2018-05-31T00:54:41.347Z,99.99
2018-05-31T00:55:41.341Z,99.99
2018-05-31T00:56:41.338Z,99.99
2018-05-31T00:57:41.330Z,99.99
2018-05-31T00:58:41.321Z,99.99
2018-05-31T00:59:41.320Z,99.99
2018-05-31T01:00:41.309Z,99.99
2018-05-31T01:01:41.310Z,99.99
2018-05-31T01:02:41.296Z,99.99
2018-05-31T01:03:41.296Z,99.99
2018-05-31T01:04:41.287Z,99.99
2018-05-31T01:05:41.280Z,99.99
2018-05-31T01:06:41.282Z,99.99
2018-05-31T01:07:41.271Z,99.99
2018-05-31T01:08:41.278Z,99.99
2018-05-31T01:09:41.257Z,99.99
2018-05-31T01:10:41.254Z,99.99
2018-05-31T01:11:41.246Z,99.99
2018-05-31T01:12:41.243Z,99.99
2018-05-31T01:13:41.247Z,99.99
2018-05-31T01:14:41.228Z,99.99
2018-05-31T01:15:41.235Z,99.99
2018-05-31T01:16:41.226Z,99.99
2018-05-31T01:17:41.216Z,99.99
2018-05-31T01:18:41.205Z,99.99
2018-05-31T01:19:41.197Z,99.99
2018-05-31T01:20:41.202Z,99.99
2018-05-31T01:21:41.188Z,99.99
2018-05-31T01:22:41.181Z,99.99
2018-05-31T01:23:41.188Z,99.99
2018-05-31T01:24:41.181Z,99.99
2018-05-31T01:25:41.167Z,99.99
2018-05-31T01:26:41.173Z,99.99
2018-05-31T01:27:41.154Z,99.99
2018-05-31T01:28:41.154Z,99.99
2018-05-31T01:29:41.142Z,99.99
2018-05-31T01:30:41.146Z,99.99
2018-05-31T01:31:41.140Z,99.99
2018-05-31T01:32:41.123Z,99.99
2018-05-31T01:33:41.123Z,99.99
2018-05-31T01:34:41.112Z,99.99
2018-05-31T01:35:41.114Z,99.99
2018-05-31T01:36:41.107Z,99.99
2018-05-31T01:37:41.092Z,99.99
2018-05-31T01:38:41.093Z,99.99
2018-05-31T01:39:41.091Z,99.99
2018-05-31T01:40:41.074Z,99.99
2018-05-31T01:41:41.067Z,99.99
2018-05-31T01:42:41.079Z,99.99
2018-05-31T01:43:41.063Z,99.99
2018-05-31T01:44:41.065Z,99.99
2018-05-31T01:45:41.044Z,99.99
2018-05-31T01:46:41.039Z,99.99
2018-05-31T01:47:41.034Z,99.99
2018-05-31T01:48:41.027Z,99.99
2018-05-31T01:49:41.028Z,99.99
2018-05-31T01:50:41.016Z,99.99
2018-05-31T01:51:41.010Z,99.99
2018-05-31T01:52:41.006Z,99.99
2018-05-31T01:53:41.004Z,99.99
2018-05-31T01:54:40.991Z,99.99
2018-05-31T01:55:40.983Z,99.99
2018-05-31T01:56:40.978Z,99.99
2018-05-31T01:57:40.971Z,99.99
2018-05-31T01:58:40.975Z,99.99
2018-05-31T01:59:40.963Z,99.99
2018-05-31T02:00:40.961Z,99.99
2018-05-31T02:01:40.947Z,99.99
2018-05-31T02:02:40.961Z,99.99
2018-05-31T02:03:40.942Z,99.99
2018-05-31T02:04:40.935Z,99.99
2018-05-31T02:05:40.924Z,99.99
2018-05-31T02:06:40.927Z,99.99
2018-05-31T02:07:40.917Z,99.99
2018-05-31T02:08:40.905Z,99.99
2018-05-31T02:09:40.900Z,99.99
2018-05-31T02:10:40.900Z,99.99
2018-05-31T02:11:40.887Z,99.99
2018-05-31T02:12:40.890Z,99.99
2018-05-31T02:13:40.876Z,99.99
2018-05-31T02:14:40.872Z,99.99
2018-05-31T02:15:40.874Z,99.99
2018-05-31T02:16:40.858Z,99.99
2018-05-31T02:17:40.849Z,99.99
2018-05-31T02:18:40.861Z,99.99
2018-05-31T02:19:40.839Z,99.99
2018-05-31T02:20:40.836Z,99.99
2018-05-31T02:21:40.828Z,99.99
2018-05-31T02:22:40.823Z,99.99
2018-05-31T02:23:40.812Z,99.99
2018-05-31T02:24:40.815Z,99.99
2018-05-31T02:25:40.800Z,99.99
2018-05-31T02:26:40.798Z,99.99
2018-05-31T02:27:40.788Z,99.99
2018-05-31T02:28:40.781Z,99.99
2018-05-31T02:29:40.778Z,99.99
2018-05-31T02:30:40.770Z,99.99
2018-05-31T02:31:40.767Z,99.99
2018-05-31T02:32:40.763Z,99.99
2018-05-31T02:33:40.752Z,99.99
2018-05-31T02:34:40.743Z,99.99
2018-05-31T02:35:40.736Z,99.99
2018-05-31T02:36:40.730Z,99.99
2018-05-31T02:37:40.732Z,99.99
2018-05-31T02:38:40.722Z,99.99
2018-05-31T02:39:40.715Z,99.99
2018-05-31T02:40:40.710Z,99.99
2018-05-31T02:41:40.712Z,99.99
2018-05-31T02:42:40.709Z,99.99
2018-05-31T02:43:40.694Z,99.99
2018-05-31T02:44:40.679Z,99.99
2018-05-31T02:45:40.681Z,99.99
2018-05-31T02:46:40.691Z,99.99
2018-05-31T02:47:40.673Z,99.99
2018-05-31T02:48:40.655Z,99.99
2018-05-31T02:49:40.661Z,99.99
2018-05-31T02:50:40.642Z,99.99
2018-05-31T02:51:40.648Z,99.99
2018-05-31T02:52:40.642Z,99.99
2018-05-31T02:53:40.632Z,99.99
2018-05-31T02:54:40.619Z,99.99
2018-05-31T02:55:40.615Z,99.99
2018-05-31T02:56:40.604Z,99.99
2018-05-31T02:57:40.606Z,99.99
2018-05-31T02:58:40.598Z,99.99
2018-05-31T02:59:40.584Z,99.99
2018-05-31T03:00:40.592Z,99.99
2018-05-31T03:01:40.572Z,99.99
2018-05-31T03:02:40.569Z,99.99
2018-05-31T03:03:40.557Z,99.99
2018-05-31T03:04:40.553Z,99.99
2018-05-31T03:05:40.549Z,99.99
2018-05-31T03:06:40.554Z,99.99
2018-05-31T03:07:40.584Z,99.99
2018-05-31T03:08:40.527Z,99.99
2018-05-31T03:09:40.526Z,99.99
2018-05-31T03:10:40.523Z,99.99
2018-05-31T03:11:40.508Z,99.99
2018-05-31T03:12:40.515Z,99.99
2018-05-31T03:13:40.502Z,99.99
2018-05-31T03:14:40.496Z,99.99
2018-05-31T03:15:40.481Z,99.99
2018-05-31T03:16:40.475Z,99.99
2018-05-31T03:17:40.475Z,99.99
2018-05-31T03:18:40.471Z,99.99
2018-05-31T03:19:40.468Z,99.99
2018-05-31T03:20:40.449Z,99.99
2018-05-31T03:21:40.444Z,99.99
2018-05-31T03:22:40.443Z,99.99
2018-05-31T03:23:40.437Z,99.99
2018-05-31T03:24:40.426Z,99.99
2018-05-31T03:25:40.426Z,99.99
2018-05-31T03:26:40.412Z,99.99
2018-05-31T03:27:40.416Z,99.99
2018-05-31T03:28:40.405Z,99.99
2018-05-31T03:29:40.391Z,99.99
2018-05-31T03:30:40.384Z,99.99
2018-05-31T03:31:40.390Z,99.99
2018-05-31T03:32:40.378Z,99.99
2018-05-31T03:33:40.372Z,99.99
2018-05-31T03:34:40.362Z,99.99
2018-05-31T03:35:40.363Z,99.99
2018-05-31T03:36:40.345Z,99.99
2018-05-31T03:37:40.337Z,99.99
2018-05-31T03:38:40.336Z,99.99
2018-05-31T03:39:40.324Z,99.99
2018-05-31T03:40:40.315Z,99.99
2018-05-31T03:41:40.310Z,99.99
2018-05-31T03:42:40.306Z,99.99
2018-05-31T03:43:40.298Z,99.99
2018-05-31T03:44:40.298Z,99.99
2018-05-31T03:45:40.287Z,99.99
2018-05-31T03:46:40.286Z,99.99
2018-05-31T03:47:40.282Z,99.99
2018-05-31T03:48:40.277Z,99.99
2018-05-31T03:49:40.269Z,99.99
2018-05-31T03:50:40.250Z,99.99
2018-05-31T03:51:40.244Z,99.99
2018-05-31T03:52:40.234Z,99.99
2018-05-31T03:53:40.234Z,99.99
2018-05-31T03:54:40.230Z,99.99
2018-05-31T03:55:40.220Z,99.99
2018-05-31T03:56:40.211Z,99.99
2018-05-31T03:57:40.205Z,99.99
2018-05-31T03:58:40.202Z,99.99
2018-05-31T03:59:40.191Z,99.99
2018-05-31T04:00:40.185Z,99.99
2018-05-31T04:01:40.190Z,99.99
2018-05-31T04:02:40.188Z,99.99
2018-05-31T04:03:40.168Z,99.99
2018-05-31T04:04:40.168Z,99.99
2018-05-31T04:05:40.163Z,99.99
2018-05-31T04:06:40.149Z,99.99
2018-05-31T04:07:40.148Z,99.99
2018-05-31T04:08:40.134Z,99.99
2018-05-31T04:09:40.132Z,99.99
2018-05-31T04:10:40.130Z,99.99
2018-05-31T04:11:40.124Z,99.99
2018-05-31T04:12:40.108Z,99.99
2018-05-31T04:13:40.117Z,99.99
2018-05-31T04:14:40.103Z,99.99
2018-05-31T04:15:40.085Z,99.99
2018-05-31T04:16:40.096Z,99.99
2018-05-31T04:17:40.072Z,99.99
2018-05-31T04:18:40.073Z,99.99
2018-05-31T04:19:40.071Z,99.99
2018-05-31T04:20:40.056Z,99.99
2018-05-31T04:21:40.055Z,99.99
2018-05-31T04:22:40.046Z,99.99
2018-05-31T04:23:40.039Z,99.99
2018-05-31T04:24:40.041Z,99.99
2018-05-31T04:25:40.021Z,99.99
2018-05-31T04:26:40.016Z,99.99
2018-05-31T04:27:40.013Z,99.99
2018-05-31T04:28:40.006Z,99.99
2018-05-31T04:29:39.998Z,99.99
2018-05-31T04:30:39.996Z,99.99
2018-05-31T04:31:39.995Z,99.99
2018-05-31T04:32:39.982Z,99.99
2018-05-31T04:33:40.052Z,99.99
2018-05-31T04:34:39.970Z,99.99
2018-05-31T04:35:39.977Z,99.99
2018-05-31T04:36:39.960Z,99.99
2018-05-31T04:37:39.954Z,99.99
2018-05-31T04:38:39.958Z,99.99
2018-05-31T04:39:39.944Z,99.99
2018-05-31T04:40:39.944Z,99.99
2018-05-31T04:41:39.939Z,99.99
2018-05-31T04:42:39.927Z,99.99
2018-05-31T04:43:39.925Z,99.99
2018-05-31T04:44:39.921Z,99.99
2018-05-31T04:45:39.907Z,99.99
2018-05-31T04:46:39.903Z,99.99
2018-05-31T04:47:39.896Z,99.99
2018-05-31T04:48:39.897Z,99.99
2018-05-31T04:49:39.895Z,99.99
2018-05-31T04:50:39.882Z,99.99
2018-05-31T04:51:39.881Z,99.99
2018-05-31T04:52:39.875Z,99.99
2018-05-31T04:53:39.870Z,99.99
2018-05-31T04:54:39.864Z,99.99
2018-05-31T04:55:39.850Z,99.99
2018-05-31T04:56:39.850Z,99.99
2018-05-31T04:57:39.848Z,99.99
2018-05-31T04:58:39.834Z,99.99
2018-05-31T04:59:39.827Z,99.99
2018-05-31T05:00:39.821Z,99.99
2018-05-31T05:01:39.840Z,99.99
2018-05-31T05:02:39.820Z,99.99
2018-05-31T05:03:39.809Z,99.99
2018-05-31T05:04:39.818Z,99.99
2018-05-31T05:05:39.793Z,99.99
2018-05-31T05:06:39.799Z,99.99
2018-05-31T05:07:39.786Z,99.99
2018-05-31T05:08:39.785Z,99.99
2018-05-31T05:09:39.775Z,98.68
2018-05-31T05:10:39.767Z,95.79
2018-05-31T05:11:39.767Z,90.53
2018-05-31T05:12:39.766Z,87.49
2018-05-31T05:13:39.753Z,85.22
2018-05-31T05:14:39.765Z,84.00
2018-05-31T05:15:39.751Z,82.69
2018-05-31T05:16:39.740Z,80.28
2018-05-31T05:17:39.739Z,80.66
2018-05-31T05:18:39.735Z,79.80
2018-05-31T05:19:39.725Z,79.50
2018-05-31T05:20:39.731Z,79.99
2018-05-31T05:21:39.728Z,80.66
2018-05-31T05:22:39.725Z,79.99
2018-05-31T05:23:39.709Z,80.91
2018-05-31T05:24:39.713Z,80.14
2018-05-31T05:25:39.711Z,80.24
2018-05-31T05:26:39.709Z,79.91
2018-05-31T05:27:39.693Z,80.58
2018-05-31T05:28:39.708Z,81.26
2018-05-31T05:29:39.686Z,81.07
2018-05-31T05:30:39.684Z,81.35
2018-05-31T05:31:39.685Z,82.38
2018-05-31T05:32:39.681Z,82.28
2018-05-31T05:33:39.675Z,82.96
2018-05-31T05:34:39.678Z,82.96
2018-05-31T05:35:39.662Z,83.53
2018-05-31T05:36:39.667Z,84.01
2018-05-31T05:37:39.661Z,84.59
2018-05-31T05:38:39.651Z,84.69
2018-05-31T05:39:39.661Z,84.84
2018-05-31T05:40:39.645Z,84.79
2018-05-31T05:41:39.651Z,84.75
2018-05-31T05:42:39.645Z,84.69
2018-05-31T05:43:39.635Z,84.50
2018-05-31T05:44:39.639Z,84.89
2018-05-31T05:45:39.626Z,83.69
2018-05-31T05:46:39.639Z,84.41
2018-05-31T05:47:39.619Z,83.53
2018-05-31T05:48:39.622Z,83.73
2018-05-31T05:49:39.611Z,82.96
2018-05-31T05:50:39.608Z,82.28
2018-05-31T05:51:39.609Z,83.01
2018-05-31T05:52:39.610Z,83.50
2018-05-31T05:53:39.599Z,83.88
2018-05-31T05:54:39.596Z,84.07
2018-05-31T05:55:39.592Z,85.13
2018-05-31T05:56:39.605Z,85.03
2018-05-31T05:57:39.592Z,84.94
2018-05-31T05:58:39.586Z,84.94
2018-05-31T05:59:39.578Z,86.10
2018-05-31T06:00:39.582Z,85.71
2018-05-31T06:01:39.583Z,85.47
2018-05-31T06:02:39.578Z,85.81
2018-05-31T06:03:39.565Z,85.42
2018-05-31T06:04:39.565Z,85.23
2018-05-31T06:05:39.563Z,85.81
2018-05-31T06:06:39.556Z,86.19
2018-05-31T06:07:39.552Z,85.81
2018-05-31T06:08:39.558Z,85.94
2018-05-31T06:09:39.557Z,84.89
2018-05-31T06:10:39.540Z,85.56
2018-05-31T06:11:39.538Z,84.98
2018-05-31T06:12:39.536Z,85.08
2018-05-31T06:13:39.531Z,84.31
2018-05-31T06:14:39.527Z,84.21
2018-05-31T06:15:39.525Z,83.63
2018-05-31T06:16:39.528Z,84.11
2018-05-31T06:17:39.527Z,83.73
2018-05-31T06:18:39.521Z,84.06
2018-05-31T06:19:39.516Z,83.09
2018-05-31T06:20:39.508Z,84.01
2018-05-31T06:21:39.511Z,84.41
2018-05-31T06:22:39.502Z,83.44
2018-05-31T06:23:39.500Z,83.29
2018-05-31T06:24:39.531Z,83.39
2018-05-31T06:25:39.504Z,82.51
2018-05-31T06:26:39.496Z,82.81
2018-05-31T06:27:39.505Z,81.84
2018-05-31T06:28:39.493Z,82.13
2018-05-31T06:29:39.482Z,81.65
2018-05-31T06:30:39.477Z,82.03
2018-05-31T06:31:39.492Z,82.13
2018-05-31T06:32:39.471Z,82.23
2018-05-31T06:33:39.518Z,81.65
2018-05-31T06:34:39.477Z,81.84
2018-05-31T06:35:39.464Z,81.35
2018-05-31T06:36:39.457Z,80.58
2018-05-31T06:37:39.457Z,81.60
2018-05-31T06:38:39.459Z,82.28
2018-05-31T06:39:39.449Z,81.93
2018-05-31T06:40:39.456Z,81.99
2018-05-31T06:41:39.451Z,81.99
2018-05-31T06:42:39.442Z,81.74
2018-05-31T06:43:39.449Z,81.45
2018-05-31T06:44:39.440Z,82.32
2018-05-31T06:45:39.435Z,82.86
2018-05-31T06:46:39.437Z,82.67
2018-05-31T06:47:39.433Z,83.44
2018-05-31T06:48:39.426Z,83.34
2018-05-31T06:49:39.422Z,83.69
2018-05-31T06:50:39.419Z,83.50
2018-05-31T06:51:39.422Z,83.73
2018-05-31T06:52:39.412Z,83.34
2018-05-31T06:53:39.417Z,83.44
2018-05-31T06:54:39.406Z,82.76
2018-05-31T06:55:39.402Z,82.67
2018-05-31T06:56:39.411Z,82.32
2018-05-31T06:57:39.402Z,82.03
2018-05-31T06:58:39.398Z,81.55
2018-05-31T06:59:39.391Z,81.59
2018-05-31T07:00:39.388Z,80.72
2018-05-31T07:01:39.400Z,80.14
2018-05-31T07:02:39.382Z,79.22
2018-05-31T07:03:39.379Z,79.50
2018-05-31T07:04:39.386Z,79.50
2018-05-31T07:05:39.377Z,79.25
2018-05-31T07:06:39.371Z,78.77
2018-05-31T07:07:39.383Z,78.44
2018-05-31T07:08:39.370Z,80.47
2018-05-31T07:09:39.376Z,80.08
2018-05-31T07:10:39.371Z,79.17
2018-05-31T07:11:39.367Z,82.84
2018-05-31T07:12:39.354Z,82.94
2018-05-31T07:13:39.358Z,83.62
2018-05-31T07:14:39.351Z,82.26
2018-05-31T07:15:39.348Z,81.53
2018-05-31T07:16:39.348Z,80.66
2018-05-31T07:17:39.345Z,80.47
2018-05-31T07:18:39.341Z,80.95
2018-05-31T07:19:39.345Z,80.41
2018-05-31T07:20:39.335Z,78.96
2018-05-31T07:21:39.337Z,78.48
2018-05-31T07:22:39.339Z,78.81
2018-05-31T07:23:39.329Z,78.91
2018-05-31T07:24:39.326Z,76.59
2018-05-31T07:25:39.322Z,76.87
2018-05-31T07:26:39.324Z,76.87
2018-05-31T07:27:39.318Z,76.87
2018-05-31T07:28:39.316Z,76.49
2018-05-31T07:29:39.317Z,77.17
2018-05-31T07:30:39.311Z,76.49
2018-05-31T07:31:39.325Z,76.10
2018-05-31T07:32:39.306Z,75.52
2018-05-31T07:33:39.312Z,76.97
2018-05-31T07:34:39.303Z,76.68
2018-05-31T07:35:39.303Z,76.74
2018-05-31T07:36:39.308Z,76.97
2018-05-31T07:37:39.309Z,76.29
2018-05-31T07:38:39.315Z,76.01
2018-05-31T07:39:39.289Z,75.52
2018-05-31T07:40:39.296Z,77.17
2018-05-31T07:41:39.290Z,76.39
2018-05-31T07:42:39.292Z,76.97
2018-05-31T07:43:39.288Z,76.59
2018-05-31T07:44:39.279Z,75.48
2018-05-31T07:45:39.280Z,78.29
2018-05-31T07:46:39.274Z,77.42
2018-05-31T07:47:39.282Z,77.03
2018-05-31T07:48:39.280Z,76.39
2018-05-31T07:49:39.277Z,76.78
2018-05-31T07:50:39.267Z,76.59
2018-05-31T07:51:39.265Z,76.01
2018-05-31T07:52:39.266Z,75.13
2018-05-31T07:53:39.262Z,75.13
2018-05-31T07:54:39.257Z,74.85
2018-05-31T07:55:39.253Z,73.68
2018-05-31T07:56:39.255Z,73.10
2018-05-31T07:57:39.253Z,72.52
2018-05-31T07:58:39.250Z,72.91
2018-05-31T07:59:39.253Z,73.49
2018-05-31T08:00:39.244Z,72.72
2018-05-31T08:01:39.243Z,73.49
2018-05-31T08:02:39.246Z,74.07
2018-05-31T08:03:39.260Z,73.97
2018-05-31T08:04:39.249Z,72.95
2018-05-31T08:05:39.236Z,74.27
2018-05-31T08:06:39.247Z,75.37
2018-05-31T08:07:39.230Z,73.63
2018-05-31T08:08:39.236Z,71.84
2018-05-31T08:09:39.237Z,72.95
2018-05-31T08:10:39.233Z,73.24
2018-05-31T08:11:39.221Z,72.27
2018-05-31T08:12:39.226Z,72.46
2018-05-31T08:13:39.225Z,72.27
2018-05-31T08:14:39.216Z,72.21
2018-05-31T08:15:39.213Z,72.02
2018-05-31T08:16:39.216Z,71.53
2018-05-31T08:17:39.215Z,70.76
2018-05-31T08:18:39.222Z,70.37
2018-05-31T08:19:39.205Z,70.47
2018-05-31T08:20:39.284Z,70.60
2018-05-31T08:21:39.203Z,69.92
2018-05-31T08:22:39.205Z,68.66
2018-05-31T08:23:39.200Z,70.21
2018-05-31T08:24:39.199Z,70.08
2018-05-31T08:25:39.516Z,70.34
2018-05-31T08:26:39.194Z,71.11
2018-05-31T08:27:39.197Z,71.94
2018-05-31T08:28:39.198Z,72.72
2018-05-31T08:29:39.189Z,73.39
2018-05-31T08:30:39.192Z,74.49
2018-05-31T08:31:39.227Z,72.17
2018-05-31T08:32:39.192Z,71.82
2018-05-31T08:33:39.186Z,70.95
2018-05-31T08:34:39.179Z,70.56
2018-05-31T08:35:39.178Z,69.63
2018-05-31T08:36:39.175Z,70.50
2018-05-31T08:37:39.212Z,69.92
2018-05-31T08:38:39.185Z,69.05
2018-05-31T08:39:39.180Z,67.88
2018-05-31T08:40:39.168Z,69.69
2018-05-31T08:41:39.171Z,70.21
2018-05-31T08:42:39.168Z,68.37
2018-05-31T08:43:39.185Z,68.56
2018-05-31T08:44:39.162Z,68.76
2018-05-31T08:45:39.165Z,69.98
2018-05-31T08:46:39.168Z,69.17
2018-05-31T08:47:39.165Z,71.50
2018-05-31T08:48:39.158Z,71.40
2018-05-31T08:49:39.156Z,71.59
2018-05-31T08:50:39.156Z,71.01
2018-05-31T08:51:39.161Z,70.82
2018-05-31T08:52:39.149Z,71.69
2018-05-31T08:53:39.147Z,71.26
2018-05-31T08:54:39.153Z,71.46
2018-05-31T08:55:39.148Z,74.04
2018-05-31T08:56:39.150Z,75.23
2018-05-31T08:57:39.149Z,74.46
2018-05-31T08:58:39.137Z,72.95
2018-05-31T08:59:39.141Z,72.11
2018-05-31T09:00:39.134Z,71.18
2018-05-31T09:01:39.133Z,69.73
2018-05-31T09:02:39.141Z,71.04
2018-05-31T09:03:39.139Z,70.79
2018-05-31T09:04:39.141Z,71.18
2018-05-31T09:05:39.126Z,70.31
2018-05-31T09:06:39.135Z,68.37
2018-05-31T09:07:39.121Z,68.40
2018-05-31T09:08:39.125Z,68.40
2018-05-31T09:09:39.133Z,67.82
2018-05-31T09:10:39.126Z,66.17
2018-05-31T09:11:39.115Z,67.53
2018-05-31T09:12:39.142Z,67.76
2018-05-31T09:13:39.140Z,64.47
2018-05-31T09:14:39.125Z,66.02
2018-05-31T09:15:39.111Z,65.95
2018-05-31T09:16:39.318Z,67.05
2018-05-31T09:17:39.114Z,66.66
2018-05-31T09:18:39.115Z,67.44
